sensor_id;sensor_type;location;lat;lon;timestamp;temperature;humidity
18577;DHT22;9418;52.694;13.294;2023-02-28T00:00:37;-1.50;99.90
18577;DHT22;9418;52.694;13.294;2023-02-28T00:03:04;-1.60;99.90
18577;DHT22;9418;52.694;13.294;2023-02-28T00:05:31;-1.70;99.90
18577;DHT22;9418;52.694;13.294;2023-02-28T00:07:58;-1.70;99.90
18577;DHT22;9418;52.694;13.294;2023-02-28T00:10:26;-1.80;99.90
18577;DHT22;9418;52.694;13.294;2023-02-28T00:12:55;-1.80;99.90
18577;DHT22;9418;52.694;13.294;2023-02-28T00:15:24;-1.80;99.90
18577;DHT22;9418;52.694;13.294;2023-02-28T00:17:50;-1.90;99.90
18577;DHT22;9418;52.694;13.294;2023-02-28T00:20:18;-1.90;99.90
18577;DHT22;9418;52.694;13.294;2023-02-28T00:22:47;-2.00;99.90
18577;DHT22;9418;52.694;13.294;2023-02-28T00:25:16;-2.00;99.90
18577;DHT22;9418;52.694;13.294;2023-02-28T00:27:43;-2.00;99.90
18577;DHT22;9418;52.694;13.294;2023-02-28T00:30:13;-2.10;99.90
18577;DHT22;9418;52.694;13.294;2023-02-28T00:32:41;-2.10;99.90
18577;DHT22;9418;52.694;13.294;2023-02-28T00:35:09;-2.10;99.90
18577;DHT22;9418;52.694;13.294;2023-02-28T00:37:36;-2.10;99.90
18577;DHT22;9418;52.694;13.294;2023-02-28T00:40:03;-2.10;99.90
18577;DHT22;9418;52.694;13.294;2023-02-28T00:42:31;-2.20;99.90
18577;DHT22;9418;52.694;13.294;2023-02-28T00:44:58;-2.20;99.90
18577;DHT22;9418;52.694;13.294;2023-02-28T00:47:25;-2.30;99.90
18577;DHT22;9418;52.694;13.294;2023-02-28T00:49:53;-2.30;99.90
18577;DHT22;9418;52.694;13.294;2023-02-28T00:52:19;-2.30;99.90
18577;DHT22;9418;52.694;13.294;2023-02-28T00:54:46;-2.40;99.90
18577;DHT22;9418;52.694;13.294;2023-02-28T00:57:13;-2.40;99.90
18577;DHT22;9418;52.694;13.294;2023-02-28T00:59:40;-2.40;99.90
18577;DHT22;9418;52.694;13.294;2023-02-28T01:02:06;-2.40;99.90
18577;DHT22;9418;52.694;13.294;2023-02-28T01:04:33;-2.40;99.90
18577;DHT22;9418;52.694;13.294;2023-02-28T01:07:01;-2.40;99.90
18577;DHT22;9418;52.694;13.294;2023-02-28T01:09:29;-2.40;99.90
18577;DHT22;9418;52.694;13.294;2023-02-28T01:11:56;-2.40;99.90
18577;DHT22;9418;52.694;13.294;2023-02-28T01:14:22;-2.50;99.90
18577;DHT22;9418;52.694;13.294;2023-02-28T01:16:49;-2.60;99.90
18577;DHT22;9418;52.694;13.294;2023-02-28T01:19:17;-2.60;99.90
18577;DHT22;9418;52.694;13.294;2023-02-28T01:21:43;-2.60;99.90
18577;DHT22;9418;52.694;13.294;2023-02-28T01:24:11;-2.60;99.90
18577;DHT22;9418;52.694;13.294;2023-02-28T01:26:38;-2.70;99.90
18577;DHT22;9418;52.694;13.294;2023-02-28T01:29:04;-2.70;99.90
18577;DHT22;9418;52.694;13.294;2023-02-28T01:31:31;-2.70;99.90
18577;DHT22;9418;52.694;13.294;2023-02-28T01:33:57;-2.70;99.90
18577;DHT22;9418;52.694;13.294;2023-02-28T01:36:25;-2.70;99.90
18577;DHT22;9418;52.694;13.294;2023-02-28T01:38:52;-2.80;99.90
18577;DHT22;9418;52.694;13.294;2023-02-28T01:41:23;-2.80;99.90
18577;DHT22;9418;52.694;13.294;2023-02-28T01:44:01;-2.90;99.90
18577;DHT22;9418;52.694;13.294;2023-02-28T01:46:30;-2.90;99.90
18577;DHT22;9418;52.694;13.294;2023-02-28T01:49:02;-2.90;99.90
18577;DHT22;9418;52.694;13.294;2023-02-28T01:51:31;-3.00;99.90
18577;DHT22;9418;52.694;13.294;2023-02-28T01:54:02;-2.90;99.90
18577;DHT22;9418;52.694;13.294;2023-02-28T01:56:33;-2.90;99.90
18577;DHT22;9418;52.694;13.294;2023-02-28T01:59:02;-3.00;99.90
18577;DHT22;9418;52.694;13.294;2023-02-28T02:01:30;-3.00;99.90
18577;DHT22;9418;52.694;13.294;2023-02-28T02:03:59;-3.00;99.90
18577;DHT22;9418;52.694;13.294;2023-02-28T02:06:30;-3.00;99.90
18577;DHT22;9418;52.694;13.294;2023-02-28T02:08:58;-3.10;99.90
18577;DHT22;9418;52.694;13.294;2023-02-28T02:11:25;-3.10;99.90
18577;DHT22;9418;52.694;13.294;2023-02-28T02:14:11;-3.10;99.90
18577;DHT22;9418;52.694;13.294;2023-02-28T02:16:47;-3.20;99.90
18577;DHT22;9418;52.694;13.294;2023-02-28T02:19:35;-3.20;99.90
18577;DHT22;9418;52.694;13.294;2023-02-28T02:22:35;-3.20;99.90
18577;DHT22;9418;52.694;13.294;2023-02-28T02:25:22;-3.10;99.90
18577;DHT22;9418;52.694;13.294;2023-02-28T02:28:14;-3.20;99.90
18577;DHT22;9418;52.694;13.294;2023-02-28T02:34:00;-3.10;99.90
18577;DHT22;9418;52.694;13.294;2023-02-28T02:36:30;-3.20;99.90
18577;DHT22;9418;52.694;13.294;2023-02-28T02:39:03;-3.30;99.90
18577;DHT22;9418;52.694;13.294;2023-02-28T02:41:35;-3.30;99.90
18577;DHT22;9418;52.694;13.294;2023-02-28T02:44:06;-3.30;99.90
18577;DHT22;9418;52.694;13.294;2023-02-28T02:46:39;-3.40;99.90
18577;DHT22;9418;52.694;13.294;2023-02-28T02:49:13;-3.40;99.90
18577;DHT22;9418;52.694;13.294;2023-02-28T02:51:41;-3.40;99.90
18577;DHT22;9418;52.694;13.294;2023-02-28T02:54:13;-3.50;99.90
18577;DHT22;9418;52.694;13.294;2023-02-28T02:56:42;-3.50;99.90
18577;DHT22;9418;52.694;13.294;2023-02-28T02:59:12;-3.50;99.90
18577;DHT22;9418;52.694;13.294;2023-02-28T03:01:41;-3.50;99.90
18577;DHT22;9418;52.694;13.294;2023-02-28T03:04:11;-3.50;99.90
18577;DHT22;9418;52.694;13.294;2023-02-28T03:06:39;-3.60;99.90
18577;DHT22;9418;52.694;13.294;2023-02-28T03:09:06;-3.60;99.90
18577;DHT22;9418;52.694;13.294;2023-02-28T03:11:35;-3.60;99.90
18577;DHT22;9418;52.694;13.294;2023-02-28T03:14:15;-3.60;99.90
18577;DHT22;9418;52.694;13.294;2023-02-28T03:17:00;-3.70;99.90
18577;DHT22;9418;52.694;13.294;2023-02-28T03:19:44;-3.70;99.90
18577;DHT22;9418;52.694;13.294;2023-02-28T03:22:29;-3.70;99.90
18577;DHT22;9418;52.694;13.294;2023-02-28T03:25:02;-3.70;99.90
18577;DHT22;9418;52.694;13.294;2023-02-28T03:27:38;-3.70;99.90
18577;DHT22;9418;52.694;13.294;2023-02-28T03:30:10;-3.70;99.90
18577;DHT22;9418;52.694;13.294;2023-02-28T03:32:42;-3.80;99.90
18577;DHT22;9418;52.694;13.294;2023-02-28T03:35:16;-3.70;99.90
18577;DHT22;9418;52.694;13.294;2023-02-28T03:37:49;-3.80;99.90
18577;DHT22;9418;52.694;13.294;2023-02-28T03:40:19;-3.80;99.90
18577;DHT22;9418;52.694;13.294;2023-02-28T03:42:51;-3.80;99.90
18577;DHT22;9418;52.694;13.294;2023-02-28T03:45:22;-3.80;99.90
18577;DHT22;9418;52.694;13.294;2023-02-28T03:47:52;-3.70;99.90
18577;DHT22;9418;52.694;13.294;2023-02-28T03:50:24;-3.80;99.90
18577;DHT22;9418;52.694;13.294;2023-02-28T03:52:56;-3.90;99.90
18577;DHT22;9418;52.694;13.294;2023-02-28T03:55:27;-3.90;99.90
18577;DHT22;9418;52.694;13.294;2023-02-28T03:57:59;-4.00;99.90
18577;DHT22;9418;52.694;13.294;2023-02-28T04:00:29;-4.00;99.90
18577;DHT22;9418;52.694;13.294;2023-02-28T04:02:58;-4.10;99.90
18577;DHT22;9418;52.694;13.294;2023-02-28T04:05:26;-4.00;99.90
18577;DHT22;9418;52.694;13.294;2023-02-28T04:07:53;-4.00;99.90
18577;DHT22;9418;52.694;13.294;2023-02-28T04:10:20;-4.10;99.90
18577;DHT22;9418;52.694;13.294;2023-02-28T04:12:47;-4.10;99.90
18577;DHT22;9418;52.694;13.294;2023-02-28T04:15:13;-4.00;99.90
18577;DHT22;9418;52.694;13.294;2023-02-28T04:17:40;-4.10;99.90
18577;DHT22;9418;52.694;13.294;2023-02-28T04:20:07;-4.10;99.90
18577;DHT22;9418;52.694;13.294;2023-02-28T04:22:37;-4.10;99.90
18577;DHT22;9418;52.694;13.294;2023-02-28T04:25:04;-4.20;99.90
18577;DHT22;9418;52.694;13.294;2023-02-28T04:27:31;-4.20;99.90
18577;DHT22;9418;52.694;13.294;2023-02-28T04:29:58;-4.10;99.90
18577;DHT22;9418;52.694;13.294;2023-02-28T04:32:25;-4.10;99.90
18577;DHT22;9418;52.694;13.294;2023-02-28T04:34:51;-4.10;99.90
18577;DHT22;9418;52.694;13.294;2023-02-28T04:37:18;-4.20;99.90
18577;DHT22;9418;52.694;13.294;2023-02-28T04:39:46;-4.20;99.90
18577;DHT22;9418;52.694;13.294;2023-02-28T04:42:12;-4.30;99.90
18577;DHT22;9418;52.694;13.294;2023-02-28T04:44:39;-4.30;99.90
18577;DHT22;9418;52.694;13.294;2023-02-28T04:47:06;-4.30;99.90
18577;DHT22;9418;52.694;13.294;2023-02-28T04:49:33;-4.30;99.90
18577;DHT22;9418;52.694;13.294;2023-02-28T04:51:59;-4.40;99.90
18577;DHT22;9418;52.694;13.294;2023-02-28T04:54:26;-4.30;99.90
18577;DHT22;9418;52.694;13.294;2023-02-28T04:56:54;-4.40;99.90
18577;DHT22;9418;52.694;13.294;2023-02-28T04:59:21;-4.40;99.90
18577;DHT22;9418;52.694;13.294;2023-02-28T05:01:49;-4.40;99.90
18577;DHT22;9418;52.694;13.294;2023-02-28T05:04:15;-4.40;99.90
18577;DHT22;9418;52.694;13.294;2023-02-28T05:06:42;-4.30;99.90
18577;DHT22;9418;52.694;13.294;2023-02-28T05:09:09;-4.30;99.90
18577;DHT22;9418;52.694;13.294;2023-02-28T05:11:39;-4.40;99.90
18577;DHT22;9418;52.694;13.294;2023-02-28T05:14:11;-4.50;99.90
18577;DHT22;9418;52.694;13.294;2023-02-28T05:16:37;-4.40;99.90
18577;DHT22;9418;52.694;13.294;2023-02-28T05:19:04;-4.50;99.90
18577;DHT22;9418;52.694;13.294;2023-02-28T05:21:33;-4.40;99.90
18577;DHT22;9418;52.694;13.294;2023-02-28T05:24:01;-4.50;99.90
18577;DHT22;9418;52.694;13.294;2023-02-28T05:26:29;-4.40;99.90
18577;DHT22;9418;52.694;13.294;2023-02-28T05:28:56;-4.40;99.90
18577;DHT22;9418;52.694;13.294;2023-02-28T05:31:24;-4.40;99.90
18577;DHT22;9418;52.694;13.294;2023-02-28T05:33:50;-4.40;99.90
18577;DHT22;9418;52.694;13.294;2023-02-28T05:36:17;-4.30;99.90
18577;DHT22;9418;52.694;13.294;2023-02-28T05:38:46;-4.30;99.90
18577;DHT22;9418;52.694;13.294;2023-02-28T05:41:12;-4.30;99.90
18577;DHT22;9418;52.694;13.294;2023-02-28T05:43:39;-4.40;99.90
18577;DHT22;9418;52.694;13.294;2023-02-28T05:46:07;-4.30;99.90
18577;DHT22;9418;52.694;13.294;2023-02-28T05:48:37;-4.40;99.90
18577;DHT22;9418;52.694;13.294;2023-02-28T05:51:05;-4.30;99.90
18577;DHT22;9418;52.694;13.294;2023-02-28T05:53:32;-4.40;99.90
18577;DHT22;9418;52.694;13.294;2023-02-28T05:55:59;-4.40;99.90
18577;DHT22;9418;52.694;13.294;2023-02-28T05:58:25;-4.30;99.90
18577;DHT22;9418;52.694;13.294;2023-02-28T06:00:55;-4.40;99.90
18577;DHT22;9418;52.694;13.294;2023-02-28T06:03:22;-4.30;99.90
18577;DHT22;9418;52.694;13.294;2023-02-28T06:05:50;-4.30;99.90
18577;DHT22;9418;52.694;13.294;2023-02-28T06:08:16;-4.40;99.90
18577;DHT22;9418;52.694;13.294;2023-02-28T06:10:43;-4.40;99.90
18577;DHT22;9418;52.694;13.294;2023-02-28T06:13:10;-4.30;99.90
18577;DHT22;9418;52.694;13.294;2023-02-28T06:15:38;-4.30;99.90
18577;DHT22;9418;52.694;13.294;2023-02-28T06:18:04;-4.30;99.90
18577;DHT22;9418;52.694;13.294;2023-02-28T06:20:31;-4.30;99.90
18577;DHT22;9418;52.694;13.294;2023-02-28T06:23:00;-4.30;99.90
18577;DHT22;9418;52.694;13.294;2023-02-28T06:25:27;-4.20;99.90
18577;DHT22;9418;52.694;13.294;2023-02-28T06:27:55;-4.20;99.90
18577;DHT22;9418;52.694;13.294;2023-02-28T06:30:21;-4.10;99.90
18577;DHT22;9418;52.694;13.294;2023-02-28T06:32:50;-4.00;99.90
18577;DHT22;9418;52.694;13.294;2023-02-28T06:35:17;-4.00;99.90
18577;DHT22;9418;52.694;13.294;2023-02-28T06:37:44;-3.90;99.90
18577;DHT22;9418;52.694;13.294;2023-02-28T06:40:12;-3.90;99.90
18577;DHT22;9418;52.694;13.294;2023-02-28T06:42:39;-3.80;99.90
18577;DHT22;9418;52.694;13.294;2023-02-28T06:45:06;-3.70;99.90
18577;DHT22;9418;52.694;13.294;2023-02-28T06:47:34;-3.50;99.90
18577;DHT22;9418;52.694;13.294;2023-02-28T06:50:02;-3.40;99.90
18577;DHT22;9418;52.694;13.294;2023-02-28T06:52:30;-3.40;99.90
18577;DHT22;9418;52.694;13.294;2023-02-28T06:54:56;-3.30;99.90
18577;DHT22;9418;52.694;13.294;2023-02-28T06:57:29;-3.30;99.90
18577;DHT22;9418;52.694;13.294;2023-02-28T06:59:57;-3.20;99.90
18577;DHT22;9418;52.694;13.294;2023-02-28T07:02:24;-3.00;99.90
18577;DHT22;9418;52.694;13.294;2023-02-28T07:04:50;-2.90;99.90
18577;DHT22;9418;52.694;13.294;2023-02-28T07:07:17;-2.60;99.90
18577;DHT22;9418;52.694;13.294;2023-02-28T07:09:44;-2.30;99.90
18577;DHT22;9418;52.694;13.294;2023-02-28T07:12:10;-2.20;99.90
18577;DHT22;9418;52.694;13.294;2023-02-28T07:14:38;-2.00;99.90
18577;DHT22;9418;52.694;13.294;2023-02-28T07:17:06;-1.70;99.90
18577;DHT22;9418;52.694;13.294;2023-02-28T07:19:33;-1.80;74.30
18577;DHT22;9418;52.694;13.294;2023-02-28T07:22:00;-1.90;99.90
18577;DHT22;9418;52.694;13.294;2023-02-28T07:24:28;-1.90;99.90
18577;DHT22;9418;52.694;13.294;2023-02-28T07:26:54;-1.90;99.90
18577;DHT22;9418;52.694;13.294;2023-02-28T07:29:21;-1.90;99.90
18577;DHT22;9418;52.694;13.294;2023-02-28T07:31:49;-1.70;99.90
18577;DHT22;9418;52.694;13.294;2023-02-28T07:34:18;-1.50;99.90
18577;DHT22;9418;52.694;13.294;2023-02-28T07:36:45;-1.30;99.90
18577;DHT22;9418;52.694;13.294;2023-02-28T07:39:11;-1.10;99.90
18577;DHT22;9418;52.694;13.294;2023-02-28T07:41:38;-0.90;99.90
18577;DHT22;9418;52.694;13.294;2023-02-28T07:44:08;-0.80;99.90
18577;DHT22;9418;52.694;13.294;2023-02-28T07:46:35;-0.50;80.70
18577;DHT22;9418;52.694;13.294;2023-02-28T07:49:04;-0.10;45.50
18577;DHT22;9418;52.694;13.294;2023-02-28T07:51:31;0.40;69.30
18577;DHT22;9418;52.694;13.294;2023-02-28T07:53:58;0.50;99.00
18577;DHT22;9418;52.694;13.294;2023-02-28T07:56:25;0.70;98.50
18577;DHT22;9418;52.694;13.294;2023-02-28T07:58:51;0.80;90.60
18577;DHT22;9418;52.694;13.294;2023-02-28T08:01:18;0.90;98.70
18577;DHT22;9418;52.694;13.294;2023-02-28T08:03:45;1.20;99.90
18577;DHT22;9418;52.694;13.294;2023-02-28T08:06:18;1.50;99.90
18577;DHT22;9418;52.694;13.294;2023-02-28T08:08:45;1.90;99.90
18577;DHT22;9418;52.694;13.294;2023-02-28T08:11:12;2.20;99.90
18577;DHT22;9418;52.694;13.294;2023-02-28T08:13:38;2.50;99.90
18577;DHT22;9418;52.694;13.294;2023-02-28T08:16:05;2.90;26.40
18577;DHT22;9418;52.694;13.294;2023-02-28T08:18:32;3.40;48.20
18577;DHT22;9418;52.694;13.294;2023-02-28T08:20:59;3.90;69.70
18577;DHT22;9418;52.694;13.294;2023-02-28T08:23:27;3.90;69.70
18577;DHT22;9418;52.694;13.294;2023-02-28T08:25:54;4.30;89.80
18577;DHT22;9418;52.694;13.294;2023-02-28T08:28:21;4.40;97.20
18577;DHT22;9418;52.694;13.294;2023-02-28T08:30:47;4.60;96.30
18577;DHT22;9418;52.694;13.294;2023-02-28T08:33:14;4.30;89.00
18577;DHT22;9418;52.694;13.294;2023-02-28T08:35:40;3.90;86.10
18577;DHT22;9418;52.694;13.294;2023-02-28T08:38:07;3.90;82.00
18577;DHT22;9418;52.694;13.294;2023-02-28T08:40:35;4.00;76.40
18577;DHT22;9418;52.694;13.294;2023-02-28T08:43:01;4.10;88.20
18577;DHT22;9418;52.694;13.294;2023-02-28T08:45:28;4.30;87.20
18577;DHT22;9418;52.694;13.294;2023-02-28T08:47:55;4.20;85.70
18577;DHT22;9418;52.694;13.294;2023-02-28T08:50:21;4.30;95.00
18577;DHT22;9418;52.694;13.294;2023-02-28T08:52:48;4.70;98.20
18577;DHT22;9418;52.694;13.294;2023-02-28T08:55:15;4.70;99.90
18577;DHT22;9418;52.694;13.294;2023-02-28T08:57:43;4.80;99.90
18577;DHT22;9418;52.694;13.294;2023-02-28T09:00:10;5.00;99.90
18577;DHT22;9418;52.694;13.294;2023-02-28T09:02:39;5.40;99.90
18577;DHT22;9418;52.694;13.294;2023-02-28T09:05:06;5.50;99.90
18577;DHT22;9418;52.694;13.294;2023-02-28T09:07:33;5.30;99.90
18577;DHT22;9418;52.694;13.294;2023-02-28T09:09:59;5.80;99.90
18577;DHT22;9418;52.694;13.294;2023-02-28T09:12:27;6.60;99.90
18577;DHT22;9418;52.694;13.294;2023-02-28T09:14:55;7.40;99.90
18577;DHT22;9418;52.694;13.294;2023-02-28T09:17:22;8.30;99.90
18577;DHT22;9418;52.694;13.294;2023-02-28T09:19:49;9.00;99.90
18577;DHT22;9418;52.694;13.294;2023-02-28T09:22:16;8.30;99.90
18577;DHT22;9418;52.694;13.294;2023-02-28T09:24:43;10.00;99.90
18577;DHT22;9418;52.694;13.294;2023-02-28T09:27:10;9.70;99.90
18577;DHT22;9418;52.694;13.294;2023-02-28T09:29:37;8.90;99.90
18577;DHT22;9418;52.694;13.294;2023-02-28T09:32:05;9.70;92.10
18577;DHT22;9418;52.694;13.294;2023-02-28T09:34:33;8.80;95.80
18577;DHT22;9418;52.694;13.294;2023-02-28T09:36:59;8.70;99.90
18577;DHT22;9418;52.694;13.294;2023-02-28T09:39:26;9.70;99.90
18577;DHT22;9418;52.694;13.294;2023-02-28T09:41:56;10.90;99.80
18577;DHT22;9418;52.694;13.294;2023-02-28T09:44:28;9.10;99.90
18577;DHT22;9418;52.694;13.294;2023-02-28T09:46:57;9.10;97.80
18577;DHT22;9418;52.694;13.294;2023-02-28T09:49:33;10.00;91.60
18577;DHT22;9418;52.694;13.294;2023-02-28T09:52:02;10.80;21.00
18577;DHT22;9418;52.694;13.294;2023-02-28T09:54:32;11.20;20.00
18577;DHT22;9418;52.694;13.294;2023-02-28T09:57:01;11.10;20.00
18577;DHT22;9418;52.694;13.294;2023-02-28T09:59:39;12.10;23.30
18577;DHT22;9418;52.694;13.294;2023-02-28T10:02:21;11.30;24.30
18577;DHT22;9418;52.694;13.294;2023-02-28T10:04:57;12.40;23.70
18577;DHT22;9418;52.694;13.294;2023-02-28T10:07:37;11.70;23.60
18577;DHT22;9418;52.694;13.294;2023-02-28T10:10:18;10.90;23.80
18577;DHT22;9418;52.694;13.294;2023-02-28T10:12:47;10.70;81.20
18577;DHT22;9418;52.694;13.294;2023-02-28T10:15:15;11.00;72.30
18577;DHT22;9418;52.694;13.294;2023-02-28T10:17:44;10.60;21.80
18577;DHT22;9418;52.694;13.294;2023-02-28T10:20:19;11.00;92.10
18577;DHT22;9418;52.694;13.294;2023-02-28T10:22:52;10.10;23.00
18577;DHT22;9418;52.694;13.294;2023-02-28T10:25:21;10.10;20.20
18577;DHT22;9418;52.694;13.294;2023-02-28T10:27:49;11.40;24.80
18577;DHT22;9418;52.694;13.294;2023-02-28T10:30:16;10.30;25.80
18577;DHT22;9418;52.694;13.294;2023-02-28T10:32:49;9.70;21.20
18577;DHT22;9418;52.694;13.294;2023-02-28T10:35:19;10.50;21.90
18577;DHT22;9418;52.694;13.294;2023-02-28T10:37:48;10.70;20.30
18577;DHT22;9418;52.694;13.294;2023-02-28T10:40:29;10.00;82.00
18577;DHT22;9418;52.694;13.294;2023-02-28T10:42:57;10.20;99.90
18577;DHT22;9418;52.694;13.294;2023-02-28T10:45:24;9.60;94.10
18577;DHT22;9418;52.694;13.294;2023-02-28T10:47:54;10.10;20.30
18577;DHT22;9418;52.694;13.294;2023-02-28T10:50:35;10.70;23.40
18577;DHT22;9418;52.694;13.294;2023-02-28T10:53:30;9.50;21.30
18577;DHT22;9418;52.694;13.294;2023-02-28T10:55:59;9.30;79.10
18577;DHT22;9418;52.694;13.294;2023-02-28T10:58:28;8.00;95.50
18577;DHT22;9418;52.694;13.294;2023-02-28T11:00:55;7.90;99.90
18577;DHT22;9418;52.694;13.294;2023-02-28T11:03:30;9.20;93.70
18577;DHT22;9418;52.694;13.294;2023-02-28T11:05:58;9.30;75.50
18577;DHT22;9418;52.694;13.294;2023-02-28T11:08:30;8.20;99.90
18577;DHT22;9418;52.694;13.294;2023-02-28T11:11:00;7.60;99.90
18577;DHT22;9418;52.694;13.294;2023-02-28T11:13:32;7.20;99.90
18577;DHT22;9418;52.694;13.294;2023-02-28T11:16:00;7.00;99.90
18577;DHT22;9418;52.694;13.294;2023-02-28T11:18:30;6.70;99.90
18577;DHT22;9418;52.694;13.294;2023-02-28T11:20:59;6.40;99.90
18577;DHT22;9418;52.694;13.294;2023-02-28T11:23:30;6.80;99.90
18577;DHT22;9418;52.694;13.294;2023-02-28T11:25:59;7.70;99.90
18577;DHT22;9418;52.694;13.294;2023-02-28T11:28:28;7.50;99.90
18577;DHT22;9418;52.694;13.294;2023-02-28T11:31:01;7.40;99.90
18577;DHT22;9418;52.694;13.294;2023-02-28T11:33:30;8.50;99.90
18577;DHT22;9418;52.694;13.294;2023-02-28T11:36:00;8.10;99.90
18577;DHT22;9418;52.694;13.294;2023-02-28T11:38:28;8.50;99.90
18577;DHT22;9418;52.694;13.294;2023-02-28T11:41:12;8.40;99.90
18577;DHT22;9418;52.694;13.294;2023-02-28T11:43:53;8.30;99.90
18577;DHT22;9418;52.694;13.294;2023-02-28T11:46:27;7.80;99.90
18577;DHT22;9418;52.694;13.294;2023-02-28T11:49:03;8.30;99.90
18577;DHT22;9418;52.694;13.294;2023-02-28T11:51:34;9.10;99.90
18577;DHT22;9418;52.694;13.294;2023-02-28T11:54:23;8.20;99.90
18577;DHT22;9418;52.694;13.294;2023-02-28T11:56:54;7.90;99.90
18577;DHT22;9418;52.694;13.294;2023-02-28T11:59:35;7.50;99.90
18577;DHT22;9418;52.694;13.294;2023-02-28T12:02:24;7.50;99.90
18577;DHT22;9418;52.694;13.294;2023-02-28T12:05:05;7.30;99.90
18577;DHT22;9418;52.694;13.294;2023-02-28T12:07:46;7.00;99.90
18577;DHT22;9418;52.694;13.294;2023-02-28T12:10:21;7.00;99.90
18577;DHT22;9418;52.694;13.294;2023-02-28T12:12:57;7.10;99.90
18577;DHT22;9418;52.694;13.294;2023-02-28T12:15:40;7.20;99.90
18577;DHT22;9418;52.694;13.294;2023-02-28T12:18:24;7.70;99.90
18577;DHT22;9418;52.694;13.294;2023-02-28T12:20:58;7.80;99.90
18577;DHT22;9418;52.694;13.294;2023-02-28T12:23:49;8.90;99.90
18577;DHT22;9418;52.694;13.294;2023-02-28T12:26:25;8.40;99.90
18577;DHT22;9418;52.694;13.294;2023-02-28T12:29:00;9.20;99.90
18577;DHT22;9418;52.694;13.294;2023-02-28T12:31:33;10.40;86.10
18577;DHT22;9418;52.694;13.294;2023-02-28T12:34:03;9.10;85.60
18577;DHT22;9418;52.694;13.294;2023-02-28T12:36:33;9.50;99.90
18577;DHT22;9418;52.694;13.294;2023-02-28T12:39:09;10.50;99.90
18577;DHT22;9418;52.694;13.294;2023-02-28T12:41:41;10.20;75.00
18577;DHT22;9418;52.694;13.294;2023-02-28T12:44:12;9.70;92.00
18577;DHT22;9418;52.694;13.294;2023-02-28T12:46:42;9.10;99.90
18577;DHT22;9418;52.694;13.294;2023-02-28T12:49:14;8.90;99.90
18577;DHT22;9418;52.694;13.294;2023-02-28T12:51:43;8.50;99.90
18577;DHT22;9418;52.694;13.294;2023-02-28T12:54:19;9.10;99.90
18577;DHT22;9418;52.694;13.294;2023-02-28T12:56:52;8.20;99.90
18577;DHT22;9418;52.694;13.294;2023-02-28T12:59:25;8.30;99.90
18577;DHT22;9418;52.694;13.294;2023-02-28T13:02:15;8.30;99.90
18577;DHT22;9418;52.694;13.294;2023-02-28T13:04:57;7.90;99.90
18577;DHT22;9418;52.694;13.294;2023-02-28T13:07:52;7.20;99.90
18577;DHT22;9418;52.694;13.294;2023-02-28T13:10:23;7.40;99.90
18577;DHT22;9418;52.694;13.294;2023-02-28T13:12:53;8.20;99.90
18577;DHT22;9418;52.694;13.294;2023-02-28T13:15:24;9.20;99.90
18577;DHT22;9418;52.694;13.294;2023-02-28T13:17:52;9.30;99.90
18577;DHT22;9418;52.694;13.294;2023-02-28T13:20:20;9.20;99.90
18577;DHT22;9418;52.694;13.294;2023-02-28T13:22:49;9.30;99.90
18577;DHT22;9418;52.694;13.294;2023-02-28T13:34:39;9.50;90.70
18577;DHT22;9418;52.694;13.294;2023-02-28T13:37:34;10.00;84.70
18577;DHT22;9418;52.694;13.294;2023-02-28T13:40:29;9.40;99.90
18577;DHT22;9418;52.694;13.294;2023-02-28T13:43:02;9.70;84.80
18577;DHT22;9418;52.694;13.294;2023-02-28T13:45:29;9.40;82.40
18577;DHT22;9418;52.694;13.294;2023-02-28T13:48:05;9.10;91.20
18577;DHT22;9418;52.694;13.294;2023-02-28T13:50:42;9.60;99.90
18577;DHT22;9418;52.694;13.294;2023-02-28T13:56:35;10.40;89.80
18577;DHT22;9418;52.694;13.294;2023-02-28T13:59:16;10.40;81.50
18577;DHT22;9418;52.694;13.294;2023-02-28T14:02:01;10.20;78.10
18577;DHT22;9418;52.694;13.294;2023-02-28T14:04:48;9.80;92.50
18577;DHT22;9418;52.694;13.294;2023-02-28T14:07:19;10.60;23.80
18577;DHT22;9418;52.694;13.294;2023-02-28T14:09:51;10.90;20.40
18577;DHT22;9418;52.694;13.294;2023-02-28T14:12:52;10.20;80.30
18577;DHT22;9418;52.694;13.294;2023-02-28T14:15:36;9.90;84.40
18577;DHT22;9418;52.694;13.294;2023-02-28T14:18:14;9.20;99.90
18577;DHT22;9418;52.694;13.294;2023-02-28T14:20:44;9.20;99.90
18577;DHT22;9418;52.694;13.294;2023-02-28T14:23:17;8.20;99.90
18577;DHT22;9418;52.694;13.294;2023-02-28T14:25:51;8.40;99.90
18577;DHT22;9418;52.694;13.294;2023-02-28T14:28:24;8.80;99.90
18577;DHT22;9418;52.694;13.294;2023-02-28T14:30:57;8.50;99.90
18577;DHT22;9418;52.694;13.294;2023-02-28T14:33:53;9.00;99.90
18577;DHT22;9418;52.694;13.294;2023-02-28T14:36:25;9.50;91.90
18577;DHT22;9418;52.694;13.294;2023-02-28T14:38:55;9.40;99.90
18577;DHT22;9418;52.694;13.294;2023-02-28T14:41:23;9.10;99.90
18577;DHT22;9418;52.694;13.294;2023-02-28T14:43:53;9.10;99.90
18577;DHT22;9418;52.694;13.294;2023-02-28T14:46:21;8.80;99.90
18577;DHT22;9418;52.694;13.294;2023-02-28T14:48:49;8.40;99.90
18577;DHT22;9418;52.694;13.294;2023-02-28T14:51:21;8.50;99.90
18577;DHT22;9418;52.694;13.294;2023-02-28T14:53:52;8.70;99.90
18577;DHT22;9418;52.694;13.294;2023-02-28T14:56:24;8.80;99.90
18577;DHT22;9418;52.694;13.294;2023-02-28T14:58:54;9.00;99.90
18577;DHT22;9418;52.694;13.294;2023-02-28T15:01:22;8.90;99.90
18577;DHT22;9418;52.694;13.294;2023-02-28T15:03:57;8.60;99.90
18577;DHT22;9418;52.694;13.294;2023-02-28T15:06:24;9.30;99.90
18577;DHT22;9418;52.694;13.294;2023-02-28T15:09:11;9.50;99.90
18577;DHT22;9418;52.694;13.294;2023-02-28T15:11:40;9.70;92.50
18577;DHT22;9418;52.694;13.294;2023-02-28T15:14:12;9.30;99.90
18577;DHT22;9418;52.694;13.294;2023-02-28T15:16:41;8.80;99.90
18577;DHT22;9418;52.694;13.294;2023-02-28T15:19:16;8.30;99.90
18577;DHT22;9418;52.694;13.294;2023-02-28T15:21:48;8.10;99.90
18577;DHT22;9418;52.694;13.294;2023-02-28T15:24:18;7.80;99.90
18577;DHT22;9418;52.694;13.294;2023-02-28T15:26:52;7.70;99.90
18577;DHT22;9418;52.694;13.294;2023-02-28T15:29:22;7.60;99.90
18577;DHT22;9418;52.694;13.294;2023-02-28T15:31:50;7.60;99.90
18577;DHT22;9418;52.694;13.294;2023-02-28T15:34:19;7.40;99.90
18577;DHT22;9418;52.694;13.294;2023-02-28T15:36:47;7.20;99.90
18577;DHT22;9418;52.694;13.294;2023-02-28T15:39:21;7.10;99.90
18577;DHT22;9418;52.694;13.294;2023-02-28T15:41:48;7.00;99.90
18577;DHT22;9418;52.694;13.294;2023-02-28T15:44:24;7.00;99.90
18577;DHT22;9418;52.694;13.294;2023-02-28T15:46:58;6.80;99.90
18577;DHT22;9418;52.694;13.294;2023-02-28T15:49:27;6.90;99.90
18577;DHT22;9418;52.694;13.294;2023-02-28T15:51:56;6.60;99.90
18577;DHT22;9418;52.694;13.294;2023-02-28T15:54:28;6.30;99.90
18577;DHT22;9418;52.694;13.294;2023-02-28T15:56:57;6.10;99.90
18577;DHT22;9418;52.694;13.294;2023-02-28T15:59:26;5.90;99.90
18577;DHT22;9418;52.694;13.294;2023-02-28T16:02:13;5.70;99.90
18577;DHT22;9418;52.694;13.294;2023-02-28T16:04:59;5.60;99.90
18577;DHT22;9418;52.694;13.294;2023-02-28T16:07:26;5.40;99.90
18577;DHT22;9418;52.694;13.294;2023-02-28T16:09:55;5.30;99.90
18577;DHT22;9418;52.694;13.294;2023-02-28T16:12:25;5.10;99.90
18577;DHT22;9418;52.694;13.294;2023-02-28T16:14:53;5.00;99.90